Hauptseite
METAR-TAF:

METAR-TAF

Flughäfen :

London, England

London City Airport

Breite: 51-30N, Länge: 000-03E, Höhe: 5 m

Beobachtung

Neuester Wetterbericht von vor 39 Minuten, um 14:50 UTC
Wind 13 kt aus Ost
Temperatur 19°C
Luftfeuchtigkeit 64%
Luftdruck 1018 hPa
Sichtweite 10 km oder mehr

METAR: EGLC 211450Z AUTO 09013KT 9999 NCD 19/12 Q1018

Zeit: 16:29 (15:29 UTC)

Prognose

Neuester Wetterbericht von vor 7 Stunden und 25 Minuten, um 08:04 UTC
Gültige Prognose vom 21 um 09 UTC bis 21 um 13 UTC
Wind 8 kt aus Ost/Südost
Sichtweite 10 km oder mehr
Leicht bewölkt in der Höhe von 4500 ft
Wahrscheinlichkeit 40% :
Zeitweise
vom 21 um 09 UTC bis 21 um 11 UTC
Sichtweite: 9000 m
Wahrscheinlichkeit 30% :
Zeitweise
vom 21 um 11 UTC bis 21 um 13 UTC
Sichtweite: 8000 m
Regenschauer

TAF: EGLC 210804Z 2109/2113 11008KT 9999 FEW045 PROB40 TEMPO 2109/2111 9000 PROB30 TEMPO 2111/2113 8000 -SHRA

Wetterbeobachtungen und Prognosen von mehr als 4000 Flughäfen (METAR und TAF Bericht).

Die verfügbaren Stationen werden durch gelbe und rote Markierungen auf der Karte dargestellt.

Führen Sie die Maus auf sie, um den Namen der Station zu sehen.

Darauf klicken, um die Beobachtung von Wetterbeobachtungen und Prognosen zu sehen.

Um die Karte zu ändern : klicken Sie auf den grünen Tasten mit einem schwarzen Kreuz Zum Vergrößern, auf den grünen Button mit einem Gedankenstrich zu verkleinern, oder auf die grünen Pfeile für benachbarte Karten.


METAR-TAF: